Time;durP1;ratioP1;P1;durP2;ratioP2;P2;SDS_P1;SDS_P2;PMS_P1;PMS_P2;Temp;Humidity;BMP_temperature;BMP_pressure;BME280_temperature;BME280_humidity;BME280_pressure;Samples;Min_cycle;Max_cycle;Signal;HPM_P1;HPM_P2
2023/05/26 00:01:47;;;;;;;22.40;5.38;;;9.90;99.90;;;;;;5048695;28;20439;-60
2023/05/26 00:04:16;;;;;;;27.02;5.30;;;9.90;99.90;;;;;;5044982;28;20052;-61
2023/05/26 00:06:44;;;;;;;24.00;5.07;;;9.80;99.90;;;;;;5062355;28;22419;-61
2023/05/26 00:09:09;;;;;;;22.30;5.38;;;9.90;99.90;;;;;;5050578;28;20079;-60
2023/05/26 00:11:35;;;;;;;27.00;5.53;;;9.80;99.90;;;;;;5067835;28;20068;-60
2023/05/26 00:14:01;;;;;;;25.08;5.00;;;9.80;99.90;;;;;;5021223;28;20036;-58
2023/05/26 00:16:26;;;;;;;24.60;5.28;;;9.80;99.90;;;;;;5045079;28;20036;-59
2023/05/26 00:18:52;;;;;;;19.60;4.55;;;9.80;99.90;;;;;;5064543;28;20054;-60
2023/05/26 00:21:18;;;;;;;33.42;6.45;;;9.80;99.90;;;;;;5046058;28;20403;-60
2023/05/26 00:23:44;;;;;;;21.92;5.15;;;9.80;99.90;;;;;;5064977;28;20044;-60
2023/05/26 00:26:09;;;;;;;24.70;5.93;;;9.80;99.90;;;;;;5048009;28;20547;-60
2023/05/26 00:28:35;;;;;;;25.23;4.85;;;9.80;99.90;;;;;;5055961;28;20051;-60
2023/05/26 00:31:01;;;;;;;24.52;5.32;;;9.80;99.90;;;;;;5049760;28;20064;-60
2023/05/26 00:33:26;;;;;;;23.40;6.50;;;9.70;99.90;;;;;;5056497;28;20043;-61
2023/05/26 00:35:52;;;;;;;28.75;6.80;;;9.70;99.90;;;;;;5046873;28;21072;-60
2023/05/26 00:38:18;;;;;;;25.00;5.50;;;9.70;99.90;;;;;;5043420;28;20041;-60
2023/05/26 00:40:44;;;;;;;31.90;5.50;;;9.70;99.90;;;;;;5029553;28;20487;-61
2023/05/26 00:43:09;;;;;;;27.70;5.97;;;9.70;99.90;;;;;;5051503;28;20044;-60
2023/05/26 00:45:36;;;;;;;24.48;5.50;;;9.70;99.90;;;;;;5065163;28;20155;-60
2023/05/26 00:48:04;;;;;;;29.48;6.95;;;9.60;99.90;;;;;;5052951;28;20553;-60
2023/05/26 00:50:30;;;;;;;25.05;4.93;;;9.70;99.90;;;;;;5058283;23;20052;-57
2023/05/26 00:52:56;;;;;;;26.95;5.53;;;9.70;99.90;;;;;;5034993;28;20056;-58
2023/05/26 00:55:23;;;;;;;21.55;5.35;;;9.60;99.90;;;;;;5086027;28;20076;-58
2023/05/26 00:57:50;;;;;;;25.67;5.57;;;9.60;99.90;;;;;;5062955;28;20119;-58
2023/05/26 01:00:16;;;;;;;21.73;4.95;;;9.60;99.90;;;;;;5057346;28;20063;-58
2023/05/26 01:02:46;;;;;;;27.75;5.85;;;9.60;99.90;;;;;;5045525;28;20041;-57
2023/05/26 01:05:15;;;;;;;28.23;6.07;;;9.50;99.90;;;;;;5045949;28;20097;-57
2023/05/26 01:07:42;;;;;;;31.85;5.75;;;9.50;99.90;;;;;;5049046;28;20399;-58
2023/05/26 01:10:09;;;;;;;26.70;5.55;;;9.50;99.90;;;;;;5033355;28;20338;-58
2023/05/26 01:12:57;;;;;;;29.73;5.95;;;9.50;99.90;;;;;;5054963;28;20060;-58
2023/05/26 01:15:29;;;;;;;27.73;5.47;;;9.50;99.90;;;;;;5064143;28;20119;-58
2023/05/26 01:18:05;;;;;;;27.77;5.47;;;9.40;99.90;;;;;;5043951;28;20515;-58
2023/05/26 01:20:38;;;;;;;26.58;6.25;;;9.40;99.90;;;;;;5048328;28;20517;-56
2023/05/26 01:23:33;;;;;;;25.20;5.22;;;9.40;99.90;;;;;;5049731;28;20059;-58
2023/05/26 01:26:21;;;;;;;30.35;5.78;;;9.40;99.90;;;;;;5044055;28;20037;-57
2023/05/26 01:28:51;;;;;;;28.33;5.43;;;9.40;99.90;;;;;;5046622;28;20089;-56
2023/05/26 01:31:17;;;;;;;23.85;5.70;;;9.40;99.90;;;;;;5034246;28;20048;-58
2023/05/26 01:33:43;;;;;;;35.33;6.97;;;9.40;99.90;;;;;;5045198;28;20048;-57
2023/05/26 01:36:08;;;;;;;26.35;6.10;;;9.30;99.90;;;;;;5046092;28;20032;-57
2023/05/26 01:38:35;;;;;;;27.60;5.60;;;9.30;99.90;;;;;;5046616;28;20037;-58
2023/05/26 01:41:13;;;;;;;28.23;5.35;;;9.30;99.90;;;;;;5053980;28;20076;-57
2023/05/26 01:43:49;;;;;;;28.00;5.72;;;9.30;99.90;;;;;;5062794;28;20576;-57
2023/05/26 01:46:22;;;;;;;35.50;6.60;;;9.30;99.90;;;;;;5050472;28;20060;-57
2023/05/26 01:48:48;;;;;;;23.60;5.18;;;9.20;99.90;;;;;;5045743;28;20094;-55
2023/05/26 01:51:18;;;;;;;27.58;5.35;;;9.20;99.90;;;;;;5028952;28;20041;-57
2023/05/26 01:53:51;;;;;;;28.30;5.28;;;9.30;99.90;;;;;;5043925;28;20037;-58
2023/05/26 01:56:18;;;;;;;35.60;5.45;;;9.20;99.90;;;;;;5045555;28;20127;-57
2023/05/26 01:58:46;;;;;;;27.02;5.70;;;9.20;99.90;;;;;;5031632;28;20051;-58
2023/05/26 02:01:12;;;;;;;21.13;4.45;;;9.20;99.90;;;;;;5062755;28;20040;-58
2023/05/26 02:03:37;;;;;;;23.58;6.00;;;9.20;99.90;;;;;;5045653;28;20043;-57
2023/05/26 02:06:03;;;;;;;22.45;5.30;;;9.20;99.90;;;;;;5049068;28;20072;-57
2023/05/26 02:08:29;;;;;;;31.60;6.35;;;9.20;99.90;;;;;;5041949;28;20070;-58
2023/05/26 02:10:55;;;;;;;21.08;4.85;;;9.20;99.90;;;;;;5025798;28;20051;-57
2023/05/26 02:13:20;;;;;;;23.85;4.30;;;9.20;99.90;;;;;;5045609;28;20039;-56
2023/05/26 02:15:46;;;;;;;22.35;5.70;;;9.10;99.90;;;;;;5048676;28;20043;-57
2023/05/26 02:18:12;;;;;;;27.30;5.28;;;9.10;99.90;;;;;;5060569;28;20047;-57
2023/05/26 02:20:37;;;;;;;26.23;5.82;;;9.10;99.90;;;;;;5029984;28;20069;-56
2023/05/26 02:23:03;;;;;;;23.77;4.97;;;9.10;99.90;;;;;;5023724;28;20043;-56
2023/05/26 02:25:29;;;;;;;29.35;5.82;;;9.10;99.90;;;;;;5042641;28;20090;-57
2023/05/26 02:27:54;;;;;;;27.13;5.57;;;9.10;99.90;;;;;;5049405;28;20491;-54
2023/05/26 02:30:20;;;;;;;28.48;6.22;;;9.10;99.90;;;;;;5048914;28;20045;-57
2023/05/26 02:32:46;;;;;;;21.35;4.60;;;9.10;99.90;;;;;;5044237;28;20043;-57
2023/05/26 02:35:12;;;;;;;20.88;5.40;;;9.10;99.90;;;;;;5030082;28;20547;-57
2023/05/26 02:37:37;;;;;;;25.88;5.65;;;9.10;99.90;;;;;;5047248;28;20039;-57
2023/05/26 02:40:06;;;;;;;22.85;4.70;;;9.10;99.90;;;;;;5044172;28;20541;-57
2023/05/26 02:42:32;;;;;;;24.85;5.05;;;9.10;99.90;;;;;;5041231;28;20528;-57
2023/05/26 02:44:58;;;;;;;26.30;5.65;;;9.10;99.90;;;;;;5041533;28;20044;-58
2023/05/26 02:47:23;;;;;;;21.25;5.18;;;9.10;99.90;;;;;;5049415;28;20043;-55
2023/05/26 02:49:49;;;;;;;24.17;5.40;;;9.10;99.90;;;;;;5043363;28;20032;-58
2023/05/26 02:52:15;;;;;;;24.52;5.10;;;9.10;99.90;;;;;;5052729;28;20040;-58
2023/05/26 02:54:40;;;;;;;26.98;5.63;;;9.10;99.90;;;;;;5063319;28;20498;-57
2023/05/26 02:57:06;;;;;;;26.20;5.78;;;9.10;99.90;;;;;;5025480;28;20041;-57
2023/05/26 02:59:32;;;;;;;24.35;5.13;;;9.10;99.90;;;;;;5045308;28;20505;-56
2023/05/26 03:01:57;;;;;;;24.02;5.15;;;9.10;99.90;;;;;;5048643;28;20036;-57
2023/05/26 03:04:23;;;;;;;26.30;5.63;;;9.10;99.90;;;;;;5028745;28;20114;-57
2023/05/26 03:06:49;;;;;;;23.95;5.50;;;9.10;99.90;;;;;;5046641;28;20047;-58
2023/05/26 03:09:14;;;;;;;28.10;7.07;;;9.10;99.90;;;;;;5044406;28;20040;-56
2023/05/26 03:11:41;;;;;;;27.90;6.18;;;9.10;99.90;;;;;;5048649;28;20102;-57
2023/05/26 03:14:06;;;;;;;27.52;6.25;;;9.10;99.90;;;;;;5064767;28;20048;-56
2023/05/26 03:16:33;;;;;;;20.25;5.68;;;9.00;99.90;;;;;;5046613;28;20043;-54
2023/05/26 03:18:59;;;;;;;27.05;5.50;;;9.00;99.90;;;;;;5043285;28;20548;-54
2023/05/26 03:21:25;;;;;;;32.30;6.38;;;9.00;99.90;;;;;;5062096;28;20045;-57
2023/05/26 03:23:51;;;;;;;34.90;6.75;;;9.00;99.90;;;;;;5048690;28;20040;-57
2023/05/26 03:26:17;;;;;;;23.85;5.22;;;9.00;99.90;;;;;;5059690;28;20086;-57
2023/05/26 03:28:42;;;;;;;27.10;5.38;;;9.00;99.90;;;;;;5051142;28;20123;-58
2023/05/26 03:31:08;;;;;;;24.42;4.90;;;9.00;99.90;;;;;;5012876;28;20045;-57
2023/05/26 03:33:33;;;;;;;21.20;5.18;;;9.00;99.90;;;;;;5068126;28;20036;-58
2023/05/26 03:36:00;;;;;;;22.48;4.10;;;9.00;99.90;;;;;;5045481;28;20123;-55
2023/05/26 03:38:26;;;;;;;25.10;5.05;;;9.00;99.90;;;;;;5049848;28;20148;-57
2023/05/26 03:40:52;;;;;;;28.38;5.47;;;9.00;99.90;;;;;;5029614;28;20044;-56
2023/05/26 03:43:18;;;;;;;28.80;5.70;;;9.00;99.90;;;;;;5044529;28;20044;-56
2023/05/26 03:45:43;;;;;;;23.45;4.72;;;8.90;99.90;;;;;;5014564;28;20087;-58
2023/05/26 03:48:12;;;;;;;32.20;6.32;;;9.00;99.90;;;;;;5029815;28;20483;-56
2023/05/26 03:50:39;;;;;;;24.50;4.95;;;9.00;99.90;;;;;;5060283;28;20041;-55
2023/05/26 03:53:05;;;;;;;22.25;4.97;;;8.90;99.90;;;;;;5035754;28;20037;-58
2023/05/26 03:55:36;;;;;;;24.50;5.05;;;8.90;99.90;;;;;;5034300;28;20049;-57
2023/05/26 03:58:02;;;;;;;25.63;5.85;;;9.00;99.90;;;;;;5027947;28;20036;-58
2023/05/26 04:00:31;;;;;;;30.52;5.38;;;8.90;99.90;;;;;;5043359;28;20409;-57
2023/05/26 04:02:58;;;;;;;22.17;4.70;;;8.90;99.90;;;;;;5048146;28;20072;-54
2023/05/26 04:05:24;;;;;;;24.75;4.78;;;9.00;99.90;;;;;;5044603;28;20119;-56
2023/05/26 04:07:50;;;;;;;21.30;4.15;;;8.90;99.90;;;;;;5041892;28;20037;-58
2023/05/26 04:10:16;;;;;;;28.08;5.03;;;9.00;99.90;;;;;;5041214;28;20562;-58
2023/05/26 04:12:42;;;;;;;34.85;6.53;;;9.00;99.90;;;;;;5044467;28;20044;-56
2023/05/26 04:15:09;;;;;;;27.55;5.80;;;9.00;99.90;;;;;;5050085;28;20117;-57
2023/05/26 04:17:35;;;;;;;20.50;4.47;;;9.00;99.90;;;;;;5049620;28;20479;-55
2023/05/26 04:20:06;;;;;;;25.88;5.55;;;9.00;99.90;;;;;;5047208;28;20086;-58
2023/05/26 04:22:32;;;;;;;26.35;5.55;;;9.00;99.90;;;;;;5069574;28;20098;-56
2023/05/26 04:24:58;;;;;;;23.10;5.97;;;9.10;99.90;;;;;;5052897;28;20036;-57
2023/05/26 04:27:24;;;;;;;22.40;4.78;;;9.10;99.90;;;;;;5049634;28;20101;-58
2023/05/26 04:29:50;;;;;;;24.13;5.10;;;9.10;99.90;;;;;;5047821;28;20035;-57
2023/05/26 04:32:16;;;;;;;22.95;4.72;;;9.10;99.90;;;;;;5052051;28;20422;-57
2023/05/26 04:34:55;;;;;;;21.67;5.30;;;9.10;99.90;;;;;;5051496;28;20037;-56
2023/05/26 04:37:21;;;;;;;29.05;7.75;;;9.20;99.90;;;;;;5053852;28;20556;-57
2023/05/26 04:39:47;;;;;;;25.80;4.90;;;9.20;99.90;;;;;;5031532;28;20044;-57
2023/05/26 04:42:13;;;;;;;27.42;5.95;;;9.20;99.90;;;;;;5047027;28;20438;-57
2023/05/26 04:44:40;;;;;;;22.67;4.38;;;9.20;99.90;;;;;;5068449;28;20504;-56
2023/05/26 04:47:08;;;;;;;23.45;5.25;;;9.30;99.90;;;;;;5049964;28;20049;-56
2023/05/26 04:49:37;;;;;;;25.40;4.80;;;9.40;99.90;;;;;;5047431;28;20032;-57
2023/05/26 04:52:04;;;;;;;24.23;5.13;;;9.40;99.90;;;;;;5061715;28;20105;-58
2023/05/26 04:54:30;;;;;;;27.88;5.28;;;9.40;99.90;;;;;;5045836;28;20034;-55
2023/05/26 04:56:56;;;;;;;30.08;5.88;;;9.50;99.90;;;;;;5026732;28;20040;-57
2023/05/26 04:59:23;;;;;;;23.60;4.93;;;9.50;99.90;;;;;;5046429;28;20040;-55
2023/05/26 05:01:49;;;;;;;23.25;6.03;;;9.60;99.90;;;;;;5066103;28;20044;-57
2023/05/26 05:04:18;;;;;;;19.92;4.80;;;9.60;99.90;;;;;;5033964;28;20049;-57
2023/05/26 05:06:44;;;;;;;28.85;6.20;;;9.70;99.90;;;;;;5049227;28;20032;-58
2023/05/26 05:09:10;;;;;;;20.77;4.70;;;9.80;99.90;;;;;;5051669;28;20028;-55
2023/05/26 05:11:35;;;;;;;24.27;5.18;;;9.80;99.90;;;;;;5041159;28;20427;-57
2023/05/26 05:14:01;;;;;;;20.58;4.93;;;9.90;99.90;;;;;;5046052;28;20045;-56
2023/05/26 05:16:27;;;;;;;28.42;6.75;;;9.90;99.90;;;;;;5046341;28;20048;-58
2023/05/26 05:18:53;;;;;;;24.17;5.10;;;10.00;99.90;;;;;;5041896;28;20041;-56
2023/05/26 05:21:19;;;;;;;26.55;5.57;;;10.10;99.90;;;;;;5063078;28;20249;-56
2023/05/26 05:23:45;;;;;;;26.33;5.30;;;10.20;99.90;;;;;;5042773;28;20052;-57
2023/05/26 05:26:11;;;;;;;25.88;5.50;;;10.20;99.90;;;;;;5047494;28;20048;-58
2023/05/26 05:28:37;;;;;;;19.98;4.60;;;10.30;99.90;;;;;;5064625;28;20044;-56
2023/05/26 05:31:03;;;;;;;20.88;5.10;;;10.40;99.90;;;;;;5037947;28;20515;-58
2023/05/26 05:33:29;;;;;;;23.17;4.82;;;10.50;99.90;;;;;;5049438;28;20067;-57
2023/05/26 05:35:54;;;;;;;23.33;5.00;;;10.60;99.90;;;;;;5048033;28;20036;-58
2023/05/26 05:38:20;;;;;;;21.58;5.25;;;10.70;99.90;;;;;;5050484;28;20052;-57
2023/05/26 05:40:46;;;;;;;31.13;6.43;;;10.80;99.90;;;;;;5045838;28;20503;-58
2023/05/26 05:43:12;;;;;;;29.33;5.88;;;10.80;99.90;;;;;;5049538;28;20097;-56
2023/05/26 05:45:37;;;;;;;29.63;5.13;;;10.90;99.90;;;;;;5026594;28;20048;-58
2023/05/26 05:48:03;;;;;;;23.42;5.43;;;11.00;99.90;;;;;;5061474;28;20040;-58
2023/05/26 05:50:29;;;;;;;22.20;5.05;;;11.00;99.90;;;;;;5028105;28;20407;-58
2023/05/26 05:52:55;;;;;;;25.95;5.03;;;11.10;99.90;;;;;;5048674;28;20036;-58
2023/05/26 05:55:21;;;;;;;18.13;4.47;;;11.20;99.90;;;;;;5008460;28;20058;-58
2023/05/26 05:57:46;;;;;;;25.08;4.53;;;11.20;99.90;;;;;;5044337;28;20124;-59
2023/05/26 06:00:12;;;;;;;25.63;5.28;;;11.30;99.90;;;;;;5028921;28;20033;-58
2023/05/26 06:02:38;;;;;;;24.95;5.15;;;11.40;99.90;;;;;;5044472;28;20093;-59
2023/05/26 06:05:04;;;;;;;20.13;4.55;;;11.40;99.90;;;;;;5045405;28;20052;-58
2023/05/26 06:07:30;;;;;;;22.38;4.15;;;11.60;99.90;;;;;;5043642;28;20040;-57
2023/05/26 06:09:57;;;;;;;25.40;4.82;;;11.60;99.90;;;;;;5043642;28;20040;-56
2023/05/26 06:12:23;;;;;;;17.10;3.97;;;11.70;99.90;;;;;;5032112;28;20055;-58
2023/05/26 06:14:49;;;;;;;25.17;5.53;;;11.70;99.90;;;;;;5043822;28;20690;-57
2023/05/26 06:17:15;;;;;;;21.58;4.80;;;11.70;99.90;;;;;;5043668;28;20113;-56
2023/05/26 06:19:40;;;;;;;24.52;5.68;;;11.80;99.90;;;;;;5025937;28;20094;-57
2023/05/26 06:22:06;;;;;;;25.98;5.25;;;11.90;99.90;;;;;;5056311;28;20515;-56
2023/05/26 06:24:32;;;;;;;23.30;5.40;;;12.00;99.90;;;;;;5041262;28;20499;-57
2023/05/26 06:26:57;;;;;;;18.00;4.55;;;12.10;99.90;;;;;;5029560;28;20467;-58
2023/05/26 06:29:23;;;;;;;19.10;5.85;;;12.10;99.90;;;;;;5051715;28;20040;-56
2023/05/26 06:31:49;;;;;;;19.52;4.43;;;12.20;99.90;;;;;;5029140;28;20073;-57
2023/05/26 06:34:15;;;;;;;23.38;5.25;;;12.30;99.90;;;;;;5024075;28;20045;-56
2023/05/26 06:36:40;;;;;;;23.85;5.72;;;12.30;99.90;;;;;;5036439;28;20041;-57
2023/05/26 06:39:06;;;;;;;22.17;5.32;;;12.40;99.90;;;;;;5042276;28;20550;-57
2023/05/26 06:41:32;;;;;;;18.75;4.32;;;12.50;99.90;;;;;;5044813;28;20040;-57
2023/05/26 06:43:58;;;;;;;17.20;4.93;;;12.50;99.90;;;;;;5029172;28;20119;-58
2023/05/26 06:46:24;;;;;;;17.25;4.38;;;12.60;99.90;;;;;;5028103;28;20042;-57
2023/05/26 06:48:49;;;;;;;22.08;4.78;;;12.60;99.90;;;;;;5045915;28;20390;-57
2023/05/26 06:51:15;;;;;;;18.13;3.78;;;12.60;99.90;;;;;;5064760;23;20051;-61
2023/05/26 06:53:41;;;;;;;19.90;4.35;;;12.70;99.90;;;;;;5050270;28;20502;-63
2023/05/26 06:56:07;;;;;;;20.58;4.43;;;12.80;99.90;;;;;;5065645;28;20040;-61
2023/05/26 06:58:32;;;;;;;20.02;3.88;;;12.80;99.90;;;;;;5045818;28;20495;-61
2023/05/26 07:01:00;;;;;;;18.50;4.53;;;12.80;99.90;;;;;;5064820;28;20040;-61
2023/05/26 07:03:26;;;;;;;20.17;4.60;;;12.90;99.90;;;;;;5069213;28;20071;-61
2023/05/26 07:05:53;;;;;;;14.45;4.07;;;13.00;99.90;;;;;;5051398;28;20052;-61
2023/05/26 07:08:19;;;;;;;24.17;4.38;;;13.10;99.90;;;;;;5050510;28;20032;-61
2023/05/26 07:10:45;;;;;;;23.08;4.82;;;13.20;99.90;;;;;;5069820;28;20078;-60
2023/05/26 07:13:10;;;;;;;26.77;4.72;;;13.20;99.90;;;;;;5051508;28;20047;-60
2023/05/26 07:15:36;;;;;;;14.77;3.75;;;13.30;99.90;;;;;;5051264;28;20044;-61
2023/05/26 07:18:02;;;;;;;16.70;3.65;;;13.40;99.90;;;;;;5069251;28;20033;-60
2023/05/26 07:42:48;;;;;;;17.08;4.18;;;13.70;99.40;;;;;;5063306;28;20051;-62
2023/05/26 07:45:14;;;;;;;20.80;4.85;;;13.70;99.20;;;;;;5051028;28;20040;-62
2023/05/26 07:47:40;;;;;;;19.65;4.75;;;13.80;99.60;;;;;;5068308;28;20036;-61
2023/05/26 07:50:06;;;;;;;16.60;4.05;;;13.90;99.60;;;;;;5053857;28;20052;-60
2023/05/26 07:52:32;;;;;;;15.20;3.90;;;13.90;98.90;;;;;;5084001;28;20132;-61
2023/05/26 07:54:58;;;;;;;12.93;3.83;;;14.00;98.80;;;;;;5038075;28;20072;-60
2023/05/26 07:57:24;;;;;;;19.42;3.63;;;14.00;98.80;;;;;;5054091;28;20048;-61
2023/05/26 07:59:50;;;;;;;13.70;3.22;;;14.20;98.80;;;;;;5053431;28;20491;-60
2023/05/26 08:02:15;;;;;;;15.25;3.70;;;14.30;98.90;;;;;;5054447;28;20098;-60
2023/05/26 08:04:41;;;;;;;15.88;3.83;;;14.30;98.60;;;;;;5019645;28;20099;-61
2023/05/26 08:07:07;;;;;;;16.42;3.95;;;14.40;98.90;;;;;;5054840;28;20122;-60
2023/05/26 08:09:33;;;;;;;23.55;4.97;;;14.60;99.10;;;;;;5031725;28;20083;-60
2023/05/26 08:11:58;;;;;;;15.13;4.38;;;14.60;98.70;;;;;;5072030;28;20040;-61
2023/05/26 08:14:26;;;;;;;16.92;3.72;;;14.70;99.00;;;;;;5072819;28;20503;-61
2023/05/26 08:16:51;;;;;;;20.15;4.32;;;14.90;98.60;;;;;;5057650;28;20466;-60
2023/05/26 08:19:17;;;;;;;15.60;3.95;;;14.90;97.80;;;;;;5043984;28;20044;-61
2023/05/26 08:21:43;;;;;;;11.93;3.30;;;14.90;97.90;;;;;;5050823;28;20495;-61
2023/05/26 08:24:09;;;;;;;15.13;3.88;;;14.90;98.10;;;;;;5071722;28;20036;-60
2023/05/26 08:26:34;;;;;;;12.70;3.25;;;15.00;97.80;;;;;;5043536;28;20364;-61
2023/05/26 08:29:00;;;;;;;11.77;3.80;;;15.00;98.00;;;;;;5068408;28;20029;-61
2023/05/26 08:31:26;;;;;;;15.98;4.22;;;15.00;97.10;;;;;;5054053;28;20064;-61
2023/05/26 08:33:53;;;;;;;17.98;4.15;;;15.10;97.70;;;;;;5054283;28;20067;-61
2023/05/26 08:36:19;;;;;;;17.45;4.70;;;15.20;97.90;;;;;;5034400;28;20055;-61
2023/05/26 08:38:45;;;;;;;13.73;3.70;;;15.30;97.50;;;;;;5072773;28;20158;-61
2023/05/26 08:41:17;;;;;;;16.02;3.95;;;15.40;97.50;;;;;;5052321;28;20041;-61
2023/05/26 08:43:55;;;;;;;14.15;3.88;;;15.60;97.60;;;;;;5034137;28;20667;-61
2023/05/26 08:46:22;;;;;;;15.95;3.75;;;15.60;97.20;;;;;;5063448;28;20051;-61
2023/05/26 08:48:49;;;;;;;16.40;3.72;;;15.60;96.70;;;;;;5092214;28;20040;-60
2023/05/26 08:51:16;;;;;;;21.05;4.10;;;15.70;97.10;;;;;;5060528;28;20556;-60
2023/05/26 08:53:44;;;;;;;19.15;4.43;;;15.70;96.40;;;;;;5052016;28;20048;-61
2023/05/26 08:56:10;;;;;;;17.42;4.53;;;15.70;96.50;;;;;;5070534;28;20119;-60
2023/05/26 08:58:38;;;;;;;14.25;3.40;;;15.70;97.00;;;;;;5063656;28;20574;-61
2023/05/26 09:01:04;;;;;;;13.40;4.40;;;15.80;96.60;;;;;;5028817;28;20488;-61
2023/05/26 09:03:30;;;;;;;15.13;4.00;;;15.80;96.50;;;;;;5053309;28;20040;-60
2023/05/26 09:05:56;;;;;;;18.77;3.42;;;15.90;96.30;;;;;;5063315;28;20032;-60
2023/05/26 09:08:22;;;;;;;16.77;4.40;;;15.90;96.30;;;;;;5072151;28;20040;-60
2023/05/26 09:10:48;;;;;;;14.73;3.70;;;16.10;96.80;;;;;;5067138;28;20495;-61
2023/05/26 09:13:17;;;;;;;18.00;4.28;;;16.20;96.20;;;;;;5051065;28;20097;-60
2023/05/26 09:15:48;;;;;;;13.48;3.53;;;16.20;95.50;;;;;;5067316;28;20036;-60
2023/05/26 09:18:14;;;;;;;13.25;3.25;;;16.10;95.60;;;;;;5029298;28;20076;-60
2023/05/26 09:20:40;;;;;;;15.48;3.85;;;16.10;95.60;;;;;;5029864;28;20086;-60
2023/05/26 09:23:06;;;;;;;14.38;4.57;;;16.10;95.80;;;;;;5069869;28;20123;-60
2023/05/26 09:25:37;;;;;;;16.13;4.20;;;16.20;95.20;;;;;;5033981;28;20044;-60
2023/05/26 09:28:09;;;;;;;17.80;3.83;;;16.30;95.60;;;;;;5048323;28;20037;-60
2023/05/26 09:30:37;;;;;;;16.35;3.85;;;16.40;96.00;;;;;;5047730;28;20119;-60
2023/05/26 09:33:08;;;;;;;14.43;3.33;;;16.50;95.60;;;;;;5061070;28;20041;-60
2023/05/26 09:35:39;;;;;;;15.25;3.65;;;16.60;95.20;;;;;;5049398;28;20036;-61
2023/05/26 09:38:10;;;;;;;12.68;3.70;;;16.60;95.00;;;;;;5029394;28;20041;-60
2023/05/26 09:40:41;;;;;;;19.45;4.45;;;16.80;95.00;;;;;;5048093;28;20079;-60
2023/05/26 09:43:07;;;;;;;15.88;3.97;;;16.90;95.30;;;;;;5048998;28;20110;-60
2023/05/26 09:45:35;;;;;;;12.40;4.00;;;17.00;94.80;;;;;;5023358;28;20033;-61
2023/05/26 09:48:02;;;;;;;16.92;4.15;;;17.00;94.60;;;;;;5046702;28;20063;-61
2023/05/26 09:50:35;;;;;;;13.48;4.03;;;17.10;94.60;;;;;;5057647;28;20648;-61
2023/05/26 09:53:02;;;;;;;14.48;3.10;;;17.10;94.80;;;;;;5043930;28;20047;-61
2023/05/26 09:55:32;;;;;;;13.98;3.58;;;17.00;94.90;;;;;;5060485;28;20040;-60
2023/05/26 09:58:11;;;;;;;15.10;3.50;;;17.00;95.30;;;;;;5041991;28;20047;-60
2023/05/26 10:00:40;;;;;;;21.02;4.55;;;17.20;95.20;;;;;;5037805;28;20119;-61
2023/05/26 10:03:10;;;;;;;20.55;4.28;;;17.30;94.60;;;;;;5040183;28;20530;-60
2023/05/26 10:05:47;;;;;;;15.02;4.30;;;17.40;93.40;;;;;;5056534;28;20167;-60
2023/05/26 10:08:20;;;;;;;18.83;4.45;;;17.20;94.00;;;;;;5041149;28;20044;-60
2023/05/26 10:10:49;;;;;;;18.35;4.25;;;17.10;94.50;;;;;;5063219;28;20101;-60
2023/05/26 10:13:16;;;;;;;17.77;5.05;;;17.00;94.40;;;;;;5058621;28;20048;-60
2023/05/26 10:15:43;;;;;;;21.08;4.80;;;17.20;94.70;;;;;;5043520;28;20055;-60
2023/05/26 10:18:09;;;;;;;16.83;4.05;;;17.30;94.20;;;;;;5042146;28;20044;-61
2023/05/26 10:20:36;;;;;;;16.77;4.13;;;17.40;94.40;;;;;;5059983;28;20045;-62
2023/05/26 10:23:07;;;;;;;15.57;4.78;;;17.50;94.60;;;;;;5026160;28;20070;-62
2023/05/26 10:25:46;;;;;;;17.08;4.18;;;17.60;94.10;;;;;;5039889;28;20040;-61
2023/05/26 10:28:43;;;;;;;21.40;4.93;;;17.60;93.50;;;;;;5044190;28;20584;-61
2023/05/26 10:31:08;;;;;;;13.43;4.00;;;17.40;94.00;;;;;;5042272;28;20414;-62
2023/05/26 10:33:39;;;;;;;16.88;4.28;;;17.40;94.50;;;;;;5047726;28;20071;-61
2023/05/26 10:36:16;;;;;;;18.10;4.35;;;17.60;94.60;;;;;;5024470;28;22179;-62
2023/05/26 10:38:50;;;;;;;21.05;4.50;;;17.90;94.50;;;;;;5054569;28;20146;-61
2023/05/26 10:41:59;;;;;;;18.15;4.45;;;18.00;93.80;;;;;;5061840;28;20040;-61
2023/05/26 10:44:44;;;;;;;14.85;4.32;;;18.10;94.00;;;;;;5037409;28;20129;-61
2023/05/26 10:47:16;;;;;;;18.10;4.47;;;18.10;93.70;;;;;;5054100;28;20050;-61
2023/05/26 10:49:50;;;;;;;12.73;4.40;;;18.10;93.80;;;;;;5044971;28;20064;-60
2023/05/26 10:52:16;;;;;;;17.55;4.60;;;18.10;94.00;;;;;;5044875;28;20033;-61
2023/05/26 10:54:42;;;;;;;17.02;4.22;;;18.00;94.10;;;;;;5042095;28;20850;-61
2023/05/26 10:57:29;;;;;;;17.33;4.15;;;18.10;93.90;;;;;;5043429;28;20128;-61
2023/05/26 10:59:54;;;;;;;23.58;4.55;;;18.00;93.20;;;;;;5044877;28;20383;-61
2023/05/26 11:02:21;;;;;;;15.45;4.38;;;17.90;92.80;;;;;;5011172;28;20041;-61
2023/05/26 11:04:49;;;;;;;16.58;4.80;;;18.00;93.50;;;;;;5068538;28;20036;-61
2023/05/26 11:07:17;;;;;;;18.20;3.78;;;18.00;92.90;;;;;;5058169;28;20411;-61
2023/05/26 11:10:08;;;;;;;14.93;4.10;;;17.90;92.90;;;;;;5058480;28;20083;-61
2023/05/26 11:12:51;;;;;;;17.33;4.10;;;18.10;92.70;;;;;;5059672;28;20511;-61
2023/05/26 11:15:30;;;;;;;14.47;4.37;;;18.20;92.20;;;;;;5063890;28;20048;-61
2023/05/26 11:17:57;;;;;;;17.35;5.57;;;18.40;93.30;;;;;;5044887;28;20033;-61
2023/05/26 11:20:24;;;;;;;14.10;4.25;;;18.40;93.00;;;;;;5067956;28;20047;-57
2023/05/26 11:22:52;;;;;;;16.90;4.15;;;18.50;93.00;;;;;;5048909;28;20973;-59
2023/05/26 11:25:18;;;;;;;12.90;4.35;;;18.60;92.80;;;;;;5047436;28;20060;-58
2023/05/26 11:27:47;;;;;;;18.65;5.00;;;18.50;92.30;;;;;;5064782;28;20547;-59
2023/05/26 11:30:13;;;;;;;14.80;4.15;;;18.30;92.70;;;;;;5064795;28;20399;-59
2023/05/26 11:32:50;;;;;;;17.17;4.93;;;18.30;92.70;;;;;;5065833;28;20048;-59
2023/05/26 11:35:22;;;;;;;18.83;4.18;;;18.60;92.30;;;;;;5069395;28;20071;-58
2023/05/26 11:37:48;;;;;;;16.27;5.07;;;18.70;92.40;;;;;;5050044;28;20058;-59
2023/05/26 11:40:14;;;;;;;14.43;5.03;;;18.70;92.30;;;;;;5068937;28;20052;-59
2023/05/26 11:42:43;;;;;;;16.45;4.22;;;18.70;91.80;;;;;;5045417;28;20399;-59
2023/05/26 11:45:10;;;;;;;19.33;6.22;;;18.70;92.90;;;;;;5043113;28;20047;-59
2023/05/26 11:47:36;;;;;;;21.55;5.15;;;18.40;91.90;;;;;;5048025;28;20475;-59
2023/05/26 11:50:09;;;;;;;21.10;4.68;;;17.90;92.50;;;;;;5065557;28;20037;-60
2023/05/26 11:52:40;;;;;;;16.17;5.18;;;17.90;93.60;;;;;;5065313;28;20610;-59
2023/05/26 11:55:06;;;;;;;16.50;5.50;;;18.00;93.30;;;;;;5048784;28;20111;-59
2023/05/26 11:57:34;;;;;;;19.05;3.92;;;18.10;92.80;;;;;;5028107;28;20564;-59
2023/05/26 12:00:09;;;;;;;18.48;4.45;;;18.10;92.90;;;;;;5048262;28;20480;-60
2023/05/26 12:02:35;;;;;;;17.48;5.47;;;18.00;92.70;;;;;;5064964;28;20135;-59
2023/05/26 12:05:19;;;;;;;17.88;4.88;;;18.10;93.20;;;;;;5063463;28;20446;-59
2023/05/26 12:07:46;;;;;;;11.40;3.95;;;18.10;92.70;;;;;;5064784;28;20043;-59
2023/05/26 12:10:11;;;;;;;17.23;4.70;;;18.10;92.80;;;;;;5043980;28;20049;-59
2023/05/26 12:12:50;;;;;;;16.40;5.47;;;18.10;92.70;;;;;;5048693;28;20102;-59
2023/05/26 12:15:20;;;;;;;17.45;4.25;;;18.30;93.10;;;;;;5052804;28;20177;-59
2023/05/26 12:17:57;;;;;;;18.17;4.80;;;18.30;92.50;;;;;;5066006;28;20024;-61
2023/05/26 12:20:24;;;;;;;16.02;4.22;;;18.10;92.30;;;;;;5043487;28;20040;-60
2023/05/26 12:22:51;;;;;;;19.63;5.82;;;18.00;92.50;;;;;;5030091;28;20036;-60
2023/05/26 12:25:24;;;;;;;18.92;4.72;;;18.10;92.60;;;;;;5029510;28;20049;-60
2023/05/26 12:27:51;;;;;;;17.52;4.82;;;18.00;92.40;;;;;;5064934;28;20036;-61
2023/05/26 12:30:18;;;;;;;14.38;3.85;;;17.90;92.50;;;;;;5048478;28;20060;-60
2023/05/26 12:32:45;;;;;;;12.98;4.35;;;17.80;92.10;;;;;;5036617;28;20045;-61
2023/05/26 12:35:11;;;;;;;16.67;4.45;;;17.90;92.90;;;;;;5040535;28;20111;-61
2023/05/26 12:37:37;;;;;;;17.98;4.47;;;18.00;92.40;;;;;;5042567;28;20052;-61
2023/05/26 12:40:05;;;;;;;16.17;4.75;;;18.10;93.40;;;;;;5061206;28;20054;-59
2023/05/26 12:42:30;;;;;;;17.25;4.75;;;18.10;93.40;;;;;;5016473;28;20045;-60
2023/05/26 12:44:56;;;;;;;16.67;4.65;;;18.10;93.50;;;;;;5047499;28;20059;-61
2023/05/26 12:47:23;;;;;;;17.67;4.57;;;17.80;93.30;;;;;;5033928;28;20044;-60
2023/05/26 12:49:48;;;;;;;26.05;4.78;;;17.70;93.60;;;;;;5062044;28;20052;-59
2023/05/26 12:52:14;;;;;;;18.02;5.32;;;17.80;93.80;;;;;;5042697;28;20497;-61
2023/05/26 12:54:40;;;;;;;15.95;4.07;;;18.00;93.70;;;;;;5043383;28;20040;-66
2023/05/26 12:57:05;;;;;;;18.42;5.10;;;17.90;93.60;;;;;;5043539;28;20504;-65
2023/05/26 12:59:33;;;;;;;16.58;4.78;;;17.80;93.60;;;;;;5044811;28;20040;-66
2023/05/26 13:01:59;;;;;;;16.25;4.63;;;17.70;93.80;;;;;;5044673;28;20052;-65
2023/05/26 13:04:25;;;;;;;14.77;4.00;;;17.70;94.20;;;;;;5046105;28;20076;-65
2023/05/26 13:06:51;;;;;;;17.00;4.57;;;17.90;94.10;;;;;;5031501;28;20083;-65